createdAt,value
2017-08-01T00:00:36.312Z,6.78
2017-08-01T00:03:05.209Z,5.95
2017-08-01T00:05:34.095Z,6.03
2017-08-01T00:08:03.498Z,6.03
2017-08-01T00:10:32.356Z,5.75
2017-08-01T00:13:01.247Z,7.45
2017-08-01T00:15:29.188Z,5.80
2017-08-01T00:17:58.839Z,5.82
2017-08-01T00:20:27.737Z,6.45
2017-08-01T00:22:56.630Z,6.30
2017-08-01T00:25:25.518Z,5.80
2017-08-01T00:27:54.397Z,5.45
2017-08-01T00:30:23.289Z,7.30
2017-08-01T00:32:52.188Z,6.57
2017-08-01T00:35:21.090Z,6.40
2017-08-01T00:37:49.982Z,5.55
2017-08-01T00:40:18.821Z,6.10
2017-08-01T00:42:48.485Z,6.45
2017-08-01T00:45:17.357Z,6.57
2017-08-01T00:47:46.248Z,5.93
2017-08-01T00:50:15.137Z,6.75
2017-08-01T00:52:44.045Z,6.30
2017-08-01T00:55:12.908Z,7.00
2017-08-01T00:57:41.796Z,6.25
2017-08-01T01:00:10.694Z,5.93
2017-08-01T01:02:39.604Z,6.85
2017-08-01T01:05:08.485Z,5.75
2017-08-01T01:07:37.390Z,6.82
2017-08-01T01:10:06.272Z,6.43
2017-08-01T01:12:35.174Z,5.53
2017-08-01T01:15:04.061Z,6.47
2017-08-01T01:17:32.958Z,7.30
2017-08-01T01:20:01.817Z,7.20
2017-08-01T01:22:30.674Z,6.60
2017-08-01T01:24:59.553Z,6.07
2017-08-01T01:27:28.454Z,7.35
2017-08-01T01:29:57.444Z,6.28
2017-08-01T01:32:26.346Z,7.47
2017-08-01T01:34:55.226Z,7.10
2017-08-01T01:37:23.766Z,6.15
2017-08-01T01:39:52.314Z,7.43
2017-08-01T01:42:20.877Z,6.40
2017-08-01T01:44:49.435Z,6.93
2017-08-01T01:47:17.976Z,6.30
2017-08-01T01:49:46.954Z,6.70
2017-08-01T01:52:15.510Z,7.50
2017-08-01T01:54:44.074Z,7.50
2017-08-01T01:57:12.950Z,6.30
2017-08-01T01:59:41.803Z,6.40
2017-08-01T02:02:10.707Z,6.53
2017-08-01T02:04:39.590Z,6.80
2017-08-01T02:07:08.477Z,6.40
2017-08-01T02:09:37.349Z,6.25
2017-08-01T02:12:07.190Z,5.95
2017-08-01T02:14:36.076Z,6.82
2017-08-01T02:17:04.264Z,6.05
2017-08-01T02:19:33.155Z,6.68
2017-08-01T02:22:02.013Z,6.43
2017-08-01T02:24:30.222Z,7.00
2017-08-01T02:26:59.890Z,8.02
2017-08-01T02:29:28.785Z,6.30
2017-08-01T02:31:57.685Z,6.57
2017-08-01T02:34:26.543Z,6.93
2017-08-01T02:36:55.392Z,6.40
2017-08-01T02:39:25.054Z,7.45
2017-08-01T02:41:53.936Z,6.40
2017-08-01T02:44:22.825Z,6.72
2017-08-01T02:46:51.704Z,5.93
2017-08-01T02:49:20.586Z,6.20
2017-08-01T02:51:49.486Z,6.40
2017-08-01T02:54:18.367Z,6.47
2017-08-01T02:56:47.271Z,6.20
2017-08-01T02:59:16.168Z,6.95
2017-08-01T03:01:45.059Z,6.70
2017-08-01T03:04:13.927Z,7.07
2017-08-01T03:06:42.792Z,7.12
2017-08-01T03:09:11.679Z,6.80
2017-08-01T03:11:40.570Z,7.40
2017-08-01T03:14:09.480Z,7.25
2017-08-01T03:16:38.384Z,6.55
2017-08-01T03:19:08.047Z,6.97
2017-08-01T03:21:36.937Z,6.00
2017-08-01T03:24:06.830Z,7.30
2017-08-01T03:26:36.691Z,7.10
2017-08-01T03:29:05.585Z,6.70
2017-08-01T03:31:34.498Z,7.20
2017-08-01T03:34:04.167Z,7.55
2017-08-01T03:36:33.069Z,6.53
2017-08-01T03:39:01.941Z,7.35
2017-08-01T03:41:30.825Z,6.28
2017-08-01T03:43:59.726Z,8.10
2017-08-01T03:46:28.639Z,7.85
2017-08-01T03:48:57.490Z,7.03
2017-08-01T03:51:26.351Z,7.37
2017-08-01T03:53:56.019Z,7.90
2017-08-01T03:56:24.902Z,7.25
2017-08-01T03:58:53.801Z,7.55
2017-08-01T04:01:22.657Z,7.47
2017-08-01T04:03:51.551Z,7.90
2017-08-01T04:06:20.447Z,7.40
2017-08-01T04:08:49.337Z,8.25
2017-08-01T04:11:18.256Z,7.82
2017-08-01T04:13:47.122Z,7.55
2017-08-01T04:16:16.020Z,7.78
2017-08-01T04:18:44.912Z,7.62
2017-08-01T04:21:13.814Z,8.82
2017-08-01T04:23:42.718Z,8.65
2017-08-01T04:26:11.621Z,7.85
2017-08-01T04:28:40.555Z,8.82
2017-08-01T04:31:09.449Z,8.23
2017-08-01T04:33:41.125Z,8.98
2017-08-01T05:19:39.860Z,8.75
2017-08-01T05:25:43.442Z,8.45
2017-08-01T05:28:13.231Z,8.00
2017-08-01T05:30:45.768Z,8.05
2017-08-01T05:33:14.673Z,7.65
2017-08-01T05:35:43.564Z,7.12
2017-08-01T05:38:12.451Z,6.60
2017-08-01T05:40:41.338Z,7.18
2017-08-01T05:43:10.960Z,8.25
2017-08-01T05:45:39.825Z,6.75
2017-08-01T05:48:08.724Z,7.10
2017-08-01T05:50:37.626Z,6.68
2017-08-01T05:53:06.486Z,6.87
2017-08-01T05:55:35.377Z,7.12
2017-08-01T05:58:04.254Z,5.70
2017-08-01T06:00:33.169Z,6.03
2017-08-01T06:03:05.953Z,6.78
2017-08-01T06:05:34.864Z,7.00
2017-08-01T06:08:03.755Z,5.85
2017-08-01T06:10:32.666Z,5.62
2017-08-01T06:13:01.380Z,4.82
2017-08-01T06:15:30.090Z,5.20
2017-08-01T06:17:58.974Z,5.10
2017-08-01T06:20:27.863Z,5.35
2017-08-01T06:22:56.776Z,4.70
2017-08-01T06:25:25.476Z,5.00
2017-08-01T06:27:54.377Z,5.57
2017-08-01T06:30:23.264Z,4.65
2017-08-01T06:32:52.127Z,5.20
2017-08-01T06:35:20.970Z,4.35
2017-08-01T06:37:49.824Z,4.50
2017-08-01T06:40:18.694Z,4.30
2017-08-01T06:42:48.366Z,5.22
2017-08-01T06:45:17.245Z,4.82
2017-08-01T06:47:46.131Z,4.20
2017-08-01T06:52:53.414Z,4.70
2017-08-01T06:55:22.300Z,4.90
2017-08-01T06:57:51.198Z,5.15
2017-08-01T07:00:20.095Z,5.60
2017-08-01T07:02:49.003Z,5.82
2017-08-01T07:05:17.888Z,5.25
2017-08-01T07:07:46.786Z,5.12
2017-08-01T07:10:15.665Z,5.12
2017-08-01T07:12:44.565Z,5.68
2017-08-01T07:15:13.421Z,5.50
2017-08-01T07:17:42.306Z,5.53
2017-08-01T07:20:11.197Z,5.20
2017-08-01T07:22:40.097Z,4.85
2017-08-01T07:25:08.977Z,5.85
2017-08-01T07:27:37.877Z,6.25
2017-08-01T07:30:06.756Z,5.22
2017-08-01T07:32:35.617Z,5.50
2017-08-01T07:35:04.519Z,5.07
2017-08-01T07:37:34.168Z,5.05
2017-08-01T07:40:03.077Z,5.97
2017-08-01T07:42:31.960Z,5.72
2017-08-01T07:45:00.845Z,5.68
2017-08-01T07:47:29.750Z,5.32
2017-08-01T07:49:58.632Z,5.37
2017-08-01T07:52:27.546Z,5.53
2017-08-01T07:54:56.460Z,5.75
2017-08-01T07:57:25.340Z,5.50
2017-08-01T07:59:54.221Z,4.97
2017-08-01T08:02:23.113Z,6.07
2017-08-01T08:04:51.992Z,5.70
2017-08-01T08:07:20.890Z,5.97
2017-08-01T08:09:49.805Z,5.47
2017-08-01T08:12:18.710Z,5.62
2017-08-01T08:14:47.350Z,6.20
2017-08-01T08:17:16.241Z,5.05
2017-08-01T08:19:45.650Z,5.50
2017-08-01T08:22:14.543Z,5.70
2017-08-01T08:24:43.925Z,5.00
2017-08-01T08:27:12.554Z,6.00
2017-08-01T08:29:41.182Z,6.63
2017-08-01T08:32:09.798Z,6.10
2017-08-01T08:34:38.563Z,5.47
2017-08-01T08:37:07.232Z,6.20
2017-08-01T08:39:35.848Z,5.67
2017-08-01T08:42:04.469Z,6.30
2017-08-01T08:44:33.094Z,6.17
2017-08-01T08:47:01.715Z,5.77
2017-08-01T08:49:30.374Z,6.30
2017-08-01T08:51:58.997Z,5.63
2017-08-01T08:54:28.430Z,6.77
2017-08-01T08:56:57.068Z,6.07
2017-08-01T08:59:25.719Z,5.93
2017-08-01T09:01:55.053Z,6.30
2017-08-01T09:04:23.682Z,6.00
2017-08-01T09:06:52.292Z,5.40
2017-08-01T09:09:20.879Z,6.47
2017-08-01T09:11:50.492Z,5.47
2017-08-01T09:14:19.112Z,6.90
2017-08-01T09:16:47.738Z,5.93
2017-08-01T09:19:16.359Z,4.87
2017-08-01T09:21:44.990Z,5.80
2017-08-01T09:24:13.591Z,5.57
2017-08-01T09:26:42.182Z,5.43
2017-08-01T09:29:10.775Z,5.33
2017-08-01T09:31:39.397Z,6.07
2017-08-01T09:34:07.989Z,5.93
2017-08-01T09:36:36.604Z,5.13
2017-08-01T09:39:04.542Z,5.20
2017-08-01T09:41:33.160Z,6.07
2017-08-01T09:44:01.792Z,6.27
2017-08-01T09:46:30.426Z,5.70
2017-08-01T09:48:59.067Z,5.07
2017-08-01T09:51:27.711Z,6.40
2017-08-01T09:53:56.343Z,6.13
2017-08-01T09:56:24.970Z,5.47
2017-08-01T09:58:53.606Z,6.60
2017-08-01T10:01:22.239Z,5.97
2017-08-01T10:03:51.630Z,5.50
2017-08-01T10:06:21.017Z,5.40
2017-08-01T10:08:49.629Z,5.73
2017-08-01T10:11:18.267Z,6.70
2017-08-01T10:13:46.898Z,5.50
2017-08-01T10:16:16.294Z,6.13
2017-08-01T10:18:45.681Z,5.93
2017-08-01T10:21:14.313Z,6.37
2017-08-01T10:23:42.942Z,6.00
2017-08-01T10:26:11.537Z,7.13
2017-08-01T10:28:40.119Z,7.00
2017-08-01T10:31:08.742Z,6.30
2017-08-01T10:33:37.322Z,5.97
2017-08-01T10:36:05.950Z,5.50
2017-08-01T10:38:34.590Z,6.80
2017-08-01T10:41:03.231Z,6.43
2017-08-01T10:43:31.829Z,6.37
2017-08-01T10:46:00.414Z,6.77
2017-08-01T10:48:29.051Z,6.23
2017-08-01T10:50:57.670Z,6.20
2017-08-01T10:53:26.267Z,6.97
2017-08-01T10:55:54.889Z,6.37
2017-08-01T10:58:24.276Z,6.97
2017-08-01T11:00:53.661Z,6.47
2017-08-01T11:03:22.281Z,6.20
2017-08-01T11:05:50.909Z,7.20
2017-08-01T11:08:19.545Z,6.20
2017-08-01T11:10:48.186Z,5.83
2017-08-01T11:13:16.810Z,6.23
2017-08-01T11:15:45.435Z,5.90
2017-08-01T11:18:14.057Z,5.60
2017-08-01T11:20:42.674Z,5.70
2017-08-01T11:23:12.053Z,6.00
2017-08-01T11:25:40.664Z,6.20
2017-08-01T11:28:10.023Z,6.40
2017-08-01T11:30:38.652Z,5.60
2017-08-01T11:33:07.286Z,6.27
2017-08-01T11:35:35.905Z,5.90
2017-08-01T11:38:04.535Z,5.33
2017-08-01T11:40:33.145Z,5.13
2017-08-01T11:43:01.762Z,5.17
2017-08-01T11:45:30.386Z,4.80
2017-08-01T11:47:58.985Z,5.23
2017-08-01T11:50:27.609Z,5.10
2017-08-01T11:52:56.228Z,4.40
2017-08-01T11:55:25.586Z,5.03
2017-08-01T11:57:54.208Z,5.17
2017-08-01T12:00:23.606Z,4.73
2017-08-01T12:02:52.999Z,5.13
2017-08-01T12:05:21.616Z,4.63
2017-08-01T12:07:50.236Z,5.30
2017-08-01T12:10:18.848Z,4.97
2017-08-01T12:12:47.426Z,4.90
2017-08-01T12:15:16.040Z,4.43
2017-08-01T12:17:45.434Z,5.50
2017-08-01T12:20:14.020Z,5.10
2017-08-01T12:22:43.423Z,4.40
2017-08-01T12:25:12.801Z,4.10
2017-08-01T12:27:41.413Z,4.50
2017-08-01T12:30:10.800Z,4.63
2017-08-01T12:32:39.421Z,5.20
2017-08-01T12:35:08.048Z,4.10
2017-08-01T12:37:36.683Z,4.40
2017-08-01T12:40:05.998Z,3.97
2017-08-01T12:42:34.713Z,4.17
2017-08-01T12:45:03.330Z,4.07
2017-08-01T12:47:31.957Z,4.40
2017-08-01T12:50:00.583Z,4.40
2017-08-01T12:52:29.206Z,4.10
2017-08-01T12:54:58.555Z,4.13
2017-08-01T12:57:27.139Z,4.17
2017-08-01T12:59:55.717Z,3.93
2017-08-01T13:02:24.314Z,5.17
2017-08-01T13:04:52.939Z,4.27
2017-08-01T13:07:21.548Z,4.10
2017-08-01T13:09:50.180Z,4.60
2017-08-01T13:12:18.804Z,3.97
2017-08-01T13:14:48.198Z,4.13
2017-08-01T13:17:16.827Z,3.63
2017-08-01T13:19:45.445Z,4.00
2017-08-01T13:22:14.074Z,4.80
2017-08-01T13:24:43.435Z,4.53
2017-08-01T13:27:12.058Z,5.53
2017-08-01T13:29:41.452Z,4.47
2017-08-01T13:32:10.846Z,4.33
2017-08-01T13:34:39.432Z,4.73
2017-08-01T13:37:08.020Z,4.00
2017-08-01T13:39:37.525Z,3.53
2017-08-01T13:42:06.140Z,4.07
2017-08-01T13:44:34.762Z,3.90
2017-08-01T13:47:03.350Z,4.00
2017-08-01T13:49:31.968Z,3.90
2017-08-01T13:52:00.581Z,4.30
2017-08-01T13:54:29.203Z,4.37
2017-08-01T13:56:57.833Z,3.87
2017-08-01T13:59:27.224Z,4.20
2017-08-01T14:01:55.846Z,3.67
2017-08-01T14:04:24.438Z,4.00
2017-08-01T14:06:53.074Z,3.80
2017-08-01T14:09:21.662Z,4.50
2017-08-01T14:11:50.290Z,4.37
2017-08-01T14:14:18.916Z,3.73
2017-08-01T14:16:47.550Z,4.43
2017-08-01T14:19:16.135Z,4.40
2017-08-01T14:21:44.757Z,4.67
2017-08-01T14:24:13.387Z,4.70
2017-08-01T14:26:42.773Z,4.70
2017-08-01T14:29:11.398Z,4.67
2017-08-01T14:31:40.028Z,4.60
2017-08-01T14:34:08.645Z,4.87
2017-08-01T14:36:38.037Z,5.57
2017-08-01T14:39:07.428Z,6.20
2017-08-01T14:41:36.051Z,5.47
2017-08-01T14:44:04.666Z,5.77
2017-08-01T14:46:33.290Z,5.37
2017-08-01T14:49:01.905Z,5.40
2017-08-01T14:51:31.300Z,5.27
2017-08-01T14:54:00.691Z,5.70
2017-08-01T14:56:30.086Z,5.70
2017-08-01T14:58:58.711Z,5.23
2017-08-01T15:01:27.339Z,5.67
2017-08-01T15:03:55.953Z,5.57
2017-08-01T15:06:24.543Z,5.10
2017-08-01T15:08:53.904Z,5.43
2017-08-01T15:11:22.490Z,5.47
2017-08-01T15:13:51.101Z,5.40
2017-08-01T15:16:19.709Z,5.67
2017-08-01T15:18:49.217Z,5.03
2017-08-01T15:21:18.604Z,4.43
2017-08-01T15:23:48.007Z,5.80
2017-08-01T15:26:16.299Z,5.20
2017-08-01T15:28:45.696Z,5.03
2017-08-01T15:31:15.086Z,5.10
2017-08-01T15:33:43.523Z,5.37
2017-08-01T15:36:12.102Z,4.93
2017-08-01T15:38:40.539Z,5.30
2017-08-01T15:41:09.163Z,5.53
2017-08-01T15:43:37.772Z,5.43
2017-08-01T15:46:06.393Z,4.50
2017-08-01T15:48:35.019Z,4.80
2017-08-01T15:51:03.640Z,5.40
2017-08-01T15:53:32.270Z,5.47
2017-08-01T15:56:00.893Z,4.40
2017-08-01T15:58:29.510Z,4.80
2017-08-01T16:00:58.104Z,4.93
2017-08-01T16:03:26.731Z,4.83
2017-08-01T16:05:55.363Z,4.83
2017-08-01T16:08:23.978Z,4.40
2017-08-01T16:10:52.610Z,4.40
2017-08-01T16:13:21.239Z,4.23
2017-08-01T16:15:50.624Z,3.70
2017-08-01T16:18:19.247Z,3.47
2017-08-01T16:20:48.069Z,4.20
2017-08-01T16:23:16.698Z,3.90
2017-08-01T16:25:46.092Z,3.27
2017-08-01T16:28:14.708Z,3.73
2017-08-01T16:30:43.325Z,3.37
2017-08-01T16:33:11.941Z,3.47
2017-08-01T16:35:40.558Z,3.87
2017-08-01T16:38:09.920Z,4.00
2017-08-01T16:40:38.537Z,3.87
2017-08-01T16:43:08.845Z,3.70
2017-08-01T16:45:37.473Z,3.90
2017-08-01T16:48:06.095Z,3.90
2017-08-01T16:50:34.803Z,4.00
2017-08-01T16:58:56.188Z,4.07
2017-08-01T17:01:25.578Z,4.23
2017-08-01T17:03:54.210Z,5.13
2017-08-01T17:06:48.830Z,4.63
2017-08-01T17:09:17.418Z,4.90
2017-08-01T17:11:51.682Z,5.07
2017-08-01T17:14:24.660Z,5.23
2017-08-01T17:16:55.191Z,4.77
2017-08-01T17:19:23.829Z,4.13
2017-08-01T17:25:40.174Z,4.70
2017-08-01T17:28:08.794Z,3.67
2017-08-01T17:30:43.494Z,4.30
2017-08-01T17:33:13.418Z,4.17
2017-08-01T17:35:42.797Z,3.90
2017-08-01T17:38:11.426Z,4.60
2017-08-01T17:40:40.058Z,5.10
2017-08-01T17:43:09.353Z,4.57
2017-08-01T17:45:37.972Z,4.90
2017-08-01T17:48:06.574Z,4.17
2017-08-01T17:50:35.969Z,4.20
2017-08-01T17:53:06.571Z,4.40
2017-08-01T17:55:35.189Z,4.07
2017-08-01T17:58:04.579Z,3.87
2017-08-01T18:00:33.210Z,5.63
2017-08-01T18:03:01.863Z,4.37
2017-08-01T18:05:31.263Z,4.67
2017-08-01T18:08:00.657Z,4.60
2017-08-01T18:10:29.284Z,4.67
2017-08-01T18:12:57.871Z,5.53
2017-08-01T18:15:26.458Z,4.37
2017-08-01T18:17:55.082Z,4.43
2017-08-01T18:20:23.705Z,4.57
2017-08-01T18:22:52.344Z,5.27
2017-08-01T18:25:20.976Z,5.13
2017-08-01T18:27:50.379Z,4.90
2017-08-01T18:30:19.760Z,5.00
2017-08-01T18:32:48.381Z,4.73
2017-08-01T18:35:16.992Z,4.70
2017-08-01T18:37:45.618Z,4.47
2017-08-01T18:40:14.233Z,4.57
2017-08-01T18:42:42.858Z,3.77
2017-08-01T18:45:11.456Z,4.53
2017-08-01T18:47:40.080Z,3.70
2017-08-01T18:50:08.702Z,3.50
2017-08-01T18:52:37.287Z,5.43
2017-08-01T18:55:05.924Z,4.03
2017-08-01T18:57:34.677Z,4.60
2017-08-01T19:00:03.127Z,5.10
2017-08-01T19:02:31.760Z,4.50
2017-08-01T19:05:01.177Z,5.17
2017-08-01T19:07:30.568Z,5.67
2017-08-01T19:09:59.009Z,4.93
2017-08-01T19:12:27.591Z,5.63
2017-08-01T19:14:56.496Z,4.87
2017-08-01T19:17:25.118Z,5.30
2017-08-01T19:19:53.730Z,5.70
2017-08-01T19:22:22.721Z,5.63
2017-08-01T19:24:51.355Z,5.70
2017-08-01T19:27:19.990Z,5.33
2017-08-01T19:29:48.623Z,5.40
2017-08-01T19:32:17.253Z,6.30
2017-08-01T19:34:45.920Z,5.30
2017-08-01T19:37:14.683Z,5.80
2017-08-01T19:39:43.475Z,5.50
2017-08-01T19:42:12.096Z,5.03
2017-08-01T19:44:41.690Z,5.33
2017-08-01T19:47:10.360Z,6.37
2017-08-01T19:49:39.218Z,6.27
2017-08-01T19:52:08.498Z,6.10
2017-08-01T19:54:37.131Z,6.77
2017-08-01T19:57:05.760Z,6.37
2017-08-01T19:59:34.366Z,6.80
2017-08-01T20:02:02.986Z,6.20
2017-08-01T20:04:31.609Z,6.67
2017-08-01T20:07:01.106Z,6.20
2017-08-01T20:09:29.747Z,6.40
2017-08-01T20:11:58.190Z,7.03
2017-08-01T20:14:26.808Z,6.43
2017-08-01T20:16:55.422Z,6.60
2017-08-01T20:19:24.049Z,7.50
2017-08-01T20:21:53.443Z,6.63
2017-08-01T20:24:22.857Z,6.97
2017-08-01T20:26:52.268Z,6.03
2017-08-01T20:29:20.894Z,6.80
2017-08-01T20:31:49.522Z,6.50
2017-08-01T20:34:19.241Z,7.60
2017-08-01T20:36:48.352Z,6.97
2017-08-01T20:39:16.982Z,6.70
2017-08-01T20:41:45.612Z,6.33
2017-08-01T20:44:24.616Z,7.17
2017-08-01T20:49:46.244Z,7.30
2017-08-01T20:52:15.985Z,7.00
2017-08-01T20:54:45.407Z,6.93
2017-08-01T20:57:14.585Z,8.13
2017-08-01T20:59:43.981Z,8.40
2017-08-01T21:02:12.592Z,7.23
2017-08-01T21:04:41.229Z,7.00
2017-08-01T21:07:09.863Z,8.97
2017-08-01T21:12:50.147Z,8.27
2017-08-01T21:15:41.821Z,8.47
2017-08-01T21:38:29.578Z,6.47
2017-08-01T22:45:28.927Z,7.37
2017-08-01T22:47:58.573Z,6.70
2017-08-01T22:50:27.436Z,7.93
2017-08-01T22:52:57.112Z,6.93
2017-08-01T22:55:26.016Z,7.75
2017-08-01T22:57:55.818Z,6.40
2017-08-01T23:00:24.735Z,7.53
2017-08-01T23:02:53.649Z,7.25
2017-08-01T23:05:24.569Z,6.93
2017-08-01T23:07:56.491Z,7.53
2017-08-01T23:10:28.207Z,7.53
2017-08-01T23:13:07.703Z,6.62
2017-08-01T23:15:42.248Z,6.90
2017-08-01T23:18:13.929Z,7.60
2017-08-01T23:20:51.621Z,8.48
2017-08-01T23:23:21.492Z,7.18
2017-08-01T23:25:50.675Z,7.30
2017-08-01T23:28:23.542Z,7.70
2017-08-01T23:31:00.126Z,7.53
2017-08-01T23:33:32.904Z,7.43
2017-08-01T23:36:01.911Z,8.32
2017-08-01T23:38:33.289Z,8.25
2017-08-01T23:41:03.943Z,8.48
2017-08-01T23:43:32.869Z,8.25
2017-08-01T23:46:01.771Z,7.28
2017-08-01T23:48:30.682Z,6.80
2017-08-01T23:51:15.758Z,7.10
2017-08-01T23:56:51.290Z,8.90
